createdAt,value
2022-08-18T00:20:56.119Z,100167.69
2022-08-18T00:22:57.773Z,100155.47
2022-08-18T00:24:59.389Z,100162.16
2022-08-18T00:27:00.988Z,100160.19
2022-08-18T00:29:03.910Z,100156.66
2022-08-18T00:31:06.313Z,100156.56
2022-08-18T00:33:07.900Z,100157.38
2022-08-18T00:35:12.605Z,100162.91
2022-08-18T00:37:15.632Z,100167.94
2022-08-18T00:39:17.315Z,100158.50
2022-08-18T00:41:19.665Z,100158.09
2022-08-18T00:43:26.077Z,100152.63
2022-08-18T00:45:31.852Z,100154.63
2022-08-18T00:47:42.856Z,100149.06
2022-08-18T00:49:46.342Z,100147.94
2022-08-18T00:51:51.644Z,100142.38
2022-08-18T00:54:00.554Z,100143.53
2022-08-18T00:56:07.818Z,100142.34
2022-08-18T00:58:15.401Z,100140.78
2022-08-18T01:00:17.336Z,100146.69
2022-08-18T01:02:22.843Z,100151.66
2022-08-18T01:04:28.005Z,100152.47
2022-08-18T01:06:37.222Z,100160.34
2022-08-18T01:08:38.776Z,100160.34
2022-08-18T01:10:45.255Z,100158.00
2022-08-18T01:12:49.332Z,100155.19
2022-08-18T01:14:50.987Z,100163.88
2022-08-18T01:16:57.054Z,100157.56
2022-08-18T01:18:59.343Z,100157.16
2022-08-18T01:21:09.010Z,100154.78
2022-08-18T01:23:15.484Z,100164.09
2022-08-18T01:25:21.379Z,100158.94
2022-08-18T01:27:28.559Z,100167.28
2022-08-18T01:29:30.157Z,100171.19
2022-08-18T01:31:35.063Z,100160.16
2022-08-18T01:33:40.423Z,100162.94
2022-08-18T01:35:46.983Z,100160.09
2022-08-18T01:37:49.068Z,100158.13
2022-08-18T01:41:22.595Z,100162.09
2022-08-18T01:42:15.921Z,100159.75
2022-08-18T01:44:18.167Z,100160.91
2022-08-18T01:46:20.692Z,100147.84
2022-08-18T01:48:22.289Z,100151.38
2022-08-18T01:50:23.860Z,100149.06
2022-08-18T01:52:25.412Z,100146.72
2022-08-18T01:54:29.065Z,100146.28
2022-08-18T01:56:32.065Z,100158.44
2022-08-18T01:58:35.414Z,100156.06
2022-08-18T02:00:37.039Z,100142.66
2022-08-18T02:02:39.504Z,100145.84
2022-08-18T02:04:42.652Z,100141.13
2022-08-18T02:06:46.464Z,100143.06
2022-08-18T02:08:49.835Z,100139.44
2022-08-18T02:10:55.948Z,100147.72
2022-08-18T02:12:59.083Z,100146.50
2022-08-18T02:15:00.645Z,100143.72
2022-08-18T02:17:04.117Z,100152.06
2022-08-18T02:19:05.707Z,100130.78
2022-08-18T02:21:11.220Z,100141.81
2022-08-18T02:23:12.766Z,100144.16
2022-08-18T02:25:14.926Z,100136.72
2022-08-18T02:27:17.061Z,100134.75
2022-08-18T02:29:19.944Z,100141.06
2022-08-18T02:31:24.098Z,100135.53
2022-08-18T02:33:25.688Z,100140.63
2022-08-18T02:35:27.666Z,100135.53
2022-08-18T02:37:29.232Z,100142.59
2022-08-18T02:39:33.705Z,100134.66
2022-08-18T02:41:35.338Z,100139.38
2022-08-18T02:43:37.894Z,100140.53
2022-08-18T02:45:40.887Z,100143.28
2022-08-18T02:47:44.198Z,100139.75
2022-08-18T02:49:46.039Z,100138.59
2022-08-18T02:51:47.653Z,100143.69
2022-08-18T02:53:49.244Z,100137.44
2022-08-18T02:55:51.017Z,100142.13
2022-08-18T02:57:53.047Z,100140.97
2022-08-18T02:59:55.193Z,100137.44
2022-08-18T03:01:58.431Z,100144.53
2022-08-18T03:04:00.815Z,100134.66
2022-08-18T03:06:02.365Z,100136.69
2022-08-18T03:08:04.322Z,100133.16
2022-08-18T03:10:33.389Z,100132.75
2022-08-18T03:12:29.644Z,100134.31
2022-08-18T03:14:31.214Z,100133.84
2022-08-18T03:16:33.861Z,100131.88
2022-08-18T03:18:36.939Z,100126.34
2022-08-18T03:20:38.566Z,100121.63
2022-08-18T03:22:40.108Z,100118.44
2022-08-18T03:24:41.769Z,100114.91
2022-08-18T03:26:45.090Z,100112.22
2022-08-18T03:28:48.393Z,100118.91
2022-08-18T03:30:49.969Z,100121.66
2022-08-18T03:32:51.528Z,100122.06
2022-08-18T03:34:56.435Z,100121.31
2022-08-18T03:36:58.535Z,100118.91
2022-08-18T03:39:06.056Z,100120.50
2022-08-18T03:41:08.256Z,100118.09
2022-08-18T03:43:50.254Z,100119.28
2022-08-18T03:45:31.360Z,100120.81
2022-08-18T03:47:32.986Z,100115.72
2022-08-18T03:49:35.018Z,100122.38
2022-08-18T03:51:41.860Z,100118.06
2022-08-18T03:53:44.334Z,100108.91
2022-08-18T03:55:46.014Z,100107.75
2022-08-18T03:57:47.705Z,100114.88
2022-08-18T03:59:49.244Z,100103.06
2022-08-18T04:01:52.041Z,100103.06
2022-08-18T04:03:56.417Z,100106.56
2022-08-18T04:05:57.953Z,100102.16
2022-08-18T04:08:01.147Z,100108.00
2022-08-18T04:10:03.386Z,100107.66
2022-08-18T04:12:07.311Z,100105.69
2022-08-18T04:14:09.025Z,100106.56
2022-08-18T04:16:11.806Z,100110.88
2022-08-18T04:18:13.355Z,100109.31
2022-08-18T04:20:14.922Z,100116.41
2022-08-18T04:22:17.463Z,100116.00
2022-08-18T04:24:21.399Z,100115.97
2022-08-18T04:26:22.983Z,100112.44
2022-08-18T04:28:24.805Z,100112.47
2022-08-18T04:30:26.808Z,100103.47
2022-08-18T04:32:30.890Z,100111.78
2022-08-18T04:34:33.326Z,100119.63
2022-08-18T04:36:36.408Z,100124.25
2022-08-18T04:38:38.727Z,100119.91
2022-08-18T04:40:42.461Z,100122.34
2022-08-18T04:42:45.133Z,100125.81
2022-08-18T04:44:46.700Z,100133.69
2022-08-18T04:46:50.312Z,100142.28
2022-08-18T04:48:52.400Z,100146.22
2022-08-18T04:50:53.964Z,100139.88
2022-08-18T04:52:55.560Z,100145.75
2022-08-18T04:54:57.107Z,100146.16
2022-08-18T04:57:00.068Z,100146.16
2022-08-18T04:59:05.090Z,100141.03
2022-08-18T05:01:06.704Z,100145.34
2022-08-18T05:03:08.365Z,100154.78
2022-08-18T05:05:10.503Z,100145.38
2022-08-18T05:07:14.150Z,100155.53
2022-08-18T05:09:16.867Z,100149.97
2022-08-18T05:11:26.825Z,100155.88
2022-08-18T05:13:29.786Z,100161.00
2022-08-18T05:15:46.835Z,100162.56
2022-08-18T05:17:53.277Z,100159.78
2022-08-18T05:19:55.587Z,100165.66
2022-08-18T05:21:59.795Z,100170.81
2022-08-18T05:24:03.248Z,100175.06
2022-08-18T05:26:04.885Z,100177.38
2022-08-18T05:28:06.445Z,100177.81
2022-08-18T05:30:11.199Z,100172.72
2022-08-18T05:32:40.995Z,100175.50
2022-08-18T05:34:35.460Z,100169.94
2022-08-18T05:37:09.487Z,100169.19
2022-08-18T05:39:18.348Z,100180.97
2022-08-18T05:41:25.505Z,100174.69
2022-08-18T05:43:27.131Z,100179.66
2022-08-18T05:45:30.190Z,100172.63
2022-08-18T05:47:32.965Z,100169.09
2022-08-18T05:49:35.915Z,100164.00
2022-08-18T05:51:42.307Z,100161.28
2022-08-18T05:53:45.557Z,100159.31
2022-08-18T05:55:56.157Z,100160.13
2022-08-18T05:58:03.209Z,100163.72
2022-08-18T06:00:07.383Z,100158.63
2022-08-18T06:02:16.788Z,100153.16
2022-08-18T06:04:29.329Z,100159.03
2022-08-18T06:06:33.135Z,100160.53
2022-08-18T06:08:40.489Z,100153.44
2022-08-18T06:10:47.321Z,100154.19
2022-08-18T06:12:51.795Z,100155.81
2022-08-18T06:15:05.656Z,100150.75
2022-08-18T06:17:23.515Z,100154.31
2022-08-18T06:19:40.605Z,100147.69
2022-08-18T06:21:52.513Z,100142.94
2022-08-18T06:24:06.622Z,100141.44
2022-08-18T06:26:17.665Z,100147.34
2022-08-18T06:28:19.344Z,100150.09
2022-08-18T06:30:24.682Z,100145.78
2022-08-18T06:32:46.477Z,100147.78
2022-08-18T06:35:03.482Z,100153.31
2022-08-18T06:37:11.931Z,100156.06
2022-08-18T06:39:22.104Z,100162.38
2022-08-18T06:41:42.578Z,100157.66
2022-08-18T06:43:56.443Z,100156.84
2022-08-18T06:46:00.475Z,100162.38
2022-08-18T06:48:15.176Z,100152.50
2022-08-18T06:50:22.597Z,100158.41
2022-08-18T06:52:27.503Z,100174.13
2022-08-18T06:54:30.480Z,100188.69
2022-08-18T06:56:59.902Z,100191.06
2022-08-18T06:59:17.436Z,100193.41
2022-08-18T07:01:19.437Z,100183.16
2022-08-18T07:03:24.065Z,100195.78
2022-08-18T07:05:27.148Z,100193.41
2022-08-18T07:07:39.517Z,100194.50
2022-08-18T07:09:42.161Z,100203.16
2022-08-18T07:11:58.683Z,100197.56
2022-08-18T07:14:20.148Z,100199.13
2022-08-18T07:16:47.075Z,100200.69
2022-08-18T07:18:47.268Z,100204.69
2022-08-18T07:20:52.075Z,100194.09
2022-08-18T07:22:57.217Z,100189.34
2022-08-18T07:25:05.504Z,100190.94
2022-08-18T07:27:10.331Z,100198.41
2022-08-18T07:29:15.476Z,100187.81
2022-08-18T07:31:41.139Z,100189.00
2022-08-18T07:33:51.268Z,100186.66
2022-08-18T07:35:57.280Z,100191.78
2022-08-18T07:38:18.662Z,100193.41
2022-08-18T07:40:32.444Z,100199.31
2022-08-18T07:42:53.956Z,100194.16
2022-08-18T07:45:03.057Z,100200.00
2022-08-18T07:47:12.361Z,100196.13
2022-08-18T07:49:22.491Z,100196.16
2022-08-18T07:51:36.029Z,100196.22
2022-08-18T07:53:56.409Z,100201.72
2022-08-18T07:56:04.981Z,100203.59
2022-08-18T07:58:20.085Z,100204.28
2022-08-18T08:00:54.811Z,100203.06
2022-08-18T08:03:00.468Z,100200.41
2022-08-18T08:17:25.567Z,100194.53
2022-08-18T08:20:01.823Z,100195.78
2022-08-18T08:25:42.713Z,100188.03
2022-08-18T08:27:56.371Z,100186.13
2022-08-18T08:30:04.397Z,100196.75
2022-08-18T08:32:10.974Z,100197.16
2022-08-18T08:34:16.749Z,100202.25
2022-08-18T08:36:23.540Z,100204.59
2022-08-18T08:38:42.123Z,100210.91
2022-08-18T08:40:50.983Z,100210.13
2022-08-18T08:42:58.735Z,100213.69
2022-08-18T08:45:05.466Z,100210.91
2022-08-18T08:47:15.068Z,100214.03
2022-08-18T08:49:35.712Z,100221.53
2022-08-18T08:51:41.821Z,100219.16
2022-08-18T08:53:47.661Z,100233.66
2022-08-18T08:55:53.305Z,100226.59
2022-08-18T08:58:02.244Z,100234.06
2022-08-18T09:00:08.314Z,100241.50
2022-08-18T09:05:08.311Z,100262.41
2022-08-18T09:07:29.534Z,100262.41
2022-08-18T09:09:57.806Z,100268.31
2022-08-18T09:12:32.076Z,100268.34
2022-08-18T09:14:52.678Z,100265.06
2022-08-18T09:17:16.114Z,100266.53
2022-08-18T09:19:34.148Z,100270.09
2022-08-18T09:21:44.160Z,100268.50
2022-08-18T09:23:48.244Z,100276.75
2022-08-18T09:25:52.159Z,100288.94
2022-08-18T09:28:10.964Z,100287.75
2022-08-18T09:30:40.005Z,100291.25
2022-08-18T09:32:56.811Z,100291.59
2022-08-18T09:35:09.016Z,100295.56
2022-08-18T09:37:21.446Z,100287.31
2022-08-18T09:39:31.969Z,100277.06
2022-08-18T09:41:39.576Z,100253.56
2022-08-18T09:43:56.492Z,100250.09
2022-08-18T09:45:59.232Z,100254.13
2022-08-18T09:51:23.342Z,100246.41
2022-08-18T09:53:54.143Z,100236.22
2022-08-18T09:56:01.342Z,100236.38
2022-08-18T09:58:20.033Z,100238.88
2022-08-18T10:00:30.473Z,100232.59
2022-08-18T10:03:04.626Z,100228.69
2022-08-18T10:05:27.005Z,100222.59
2022-08-18T10:07:38.937Z,100222.69
2022-08-18T10:09:58.618Z,100227.94
2022-08-18T10:12:31.852Z,100219.72
2022-08-18T10:14:52.605Z,100225.28
2022-08-18T10:17:23.783Z,100227.28
2022-08-18T10:19:39.902Z,100224.94
2022-08-18T10:22:06.981Z,100212.72
2022-08-18T10:24:36.446Z,100215.50
2022-08-18T10:27:25.862Z,100234.50
2022-08-18T10:29:54.548Z,100238.78
2022-08-18T10:32:21.825Z,100241.19
2022-08-18T10:34:38.423Z,100241.94
2022-08-18T10:36:52.370Z,100246.25
2022-08-18T10:38:54.193Z,100236.81
2022-08-18T10:41:09.439Z,100238.03
2022-08-18T10:45:59.381Z,100232.13
2022-08-18T10:48:17.944Z,100229.38
2022-08-18T10:50:23.048Z,100227.00
2022-08-18T10:55:20.174Z,100200.97
2022-08-18T10:57:31.220Z,100192.28
2022-08-18T10:59:41.695Z,100190.69
2022-08-18T11:02:06.089Z,100167.41
2022-08-18T11:06:40.753Z,100159.88
2022-08-18T11:08:45.109Z,100166.97
2022-08-18T11:11:27.412Z,100170.53
2022-08-18T11:13:21.518Z,100167.38
2022-08-18T11:15:36.205Z,100162.63
2022-08-18T11:17:55.024Z,100153.16
2022-08-18T11:19:58.614Z,100139.34
2022-08-18T11:22:00.336Z,100134.59
2022-08-18T11:24:04.857Z,100125.84
2022-08-18T11:26:14.322Z,100133.72
2022-08-18T11:28:21.788Z,100141.59
2022-08-18T11:30:35.337Z,100138.38
2022-08-18T11:32:46.563Z,100136.72
2022-08-18T11:35:02.985Z,100137.56
2022-08-18T11:37:09.108Z,100147.03
2022-08-18T11:39:12.576Z,100135.94
2022-08-18T11:41:18.972Z,100142.28
2022-08-18T11:43:29.730Z,100150.56
2022-08-18T11:45:55.398Z,100147.78
2022-08-18T11:48:11.099Z,100145.88
2022-08-18T11:50:14.142Z,100147.84
2022-08-18T11:52:26.237Z,100138.72
2022-08-18T11:54:50.849Z,100140.69
2022-08-18T11:57:37.732Z,100134.28
2022-08-18T11:59:52.406Z,100122.00
2022-08-18T12:01:57.169Z,100124.75
2022-08-18T12:04:09.523Z,100129.50
2022-08-18T12:06:21.916Z,100127.91
2022-08-18T12:08:56.697Z,100127.13
2022-08-18T12:13:26.630Z,100125.50
2022-08-18T12:15:44.300Z,100129.78
2022-08-18T12:17:52.137Z,100128.06
2022-08-18T12:19:54.819Z,100121.41
2022-08-18T12:22:01.540Z,100120.22
2022-08-18T12:24:05.093Z,100119.16
2022-08-18T12:26:06.828Z,100115.97
2022-08-18T12:28:28.577Z,100104.47
2022-08-18T12:30:30.183Z,100105.22
2022-08-18T12:32:48.810Z,100106.94
2022-08-18T12:34:52.725Z,100107.41
2022-08-18T12:36:55.880Z,100111.63
2022-08-18T12:38:58.843Z,100101.75
2022-08-18T12:41:00.842Z,100102.53
2022-08-18T12:43:05.906Z,100097.16
2022-08-18T12:45:09.051Z,100091.59
2022-08-18T12:47:13.506Z,100087.47
2022-08-18T12:49:18.508Z,100080.03
2022-08-18T12:51:20.095Z,100078.53
2022-08-18T12:55:49.992Z,100078.31
2022-08-18T13:00:18.674Z,100074.34
2022-08-18T13:02:20.569Z,100074.00
2022-08-18T13:04:22.499Z,100072.72
2022-08-18T13:06:37.764Z,100062.88
2022-08-18T13:08:50.244Z,100056.03
2022-08-18T13:10:56.306Z,100046.97
2022-08-18T13:12:59.838Z,100048.50
2022-08-18T13:15:01.446Z,100048.59
2022-08-18T13:17:03.133Z,100056.91
2022-08-18T13:19:06.041Z,100057.66
2022-08-18T13:21:08.748Z,100059.81
2022-08-18T13:23:11.558Z,100054.84
2022-08-18T13:25:28.692Z,100050.06
2022-08-18T13:27:37.406Z,100043.09
2022-08-18T13:29:39.272Z,100044.28
2022-08-18T13:31:49.305Z,100042.78
2022-08-18T13:34:00.670Z,100045.56
2022-08-18T13:36:06.400Z,100044.84
2022-08-18T13:38:14.132Z,100039.78
2022-08-18T13:40:19.343Z,100038.66
2022-08-18T13:42:26.675Z,100032.44
2022-08-18T13:44:33.293Z,100025.31
2022-08-18T13:46:34.958Z,100021.63
2022-08-18T13:48:37.253Z,100012.94
2022-08-18T13:50:39.887Z,100011.34
2022-08-18T13:52:44.704Z,100013.84
2022-08-18T13:54:46.537Z,100014.88
2022-08-18T13:56:55.528Z,100000.38
2022-08-18T13:58:59.928Z,100009.91
2022-08-18T14:01:39.458Z,100005.56
2022-08-18T14:03:47.046Z,100002.81
2022-08-18T14:05:51.495Z,99996.88
2022-08-18T14:07:54.646Z,99995.69
2022-08-18T14:09:58.964Z,99997.28
2022-08-18T14:12:15.492Z,99996.84
2022-08-18T14:14:23.397Z,99997.66
2022-08-18T14:16:28.984Z,99992.16
2022-08-18T14:18:30.986Z,99994.06
2022-08-18T14:20:35.769Z,99995.84
2022-08-18T14:22:38.916Z,99983.38
2022-08-18T14:24:42.435Z,99986.75
2022-08-18T14:26:50.767Z,99992.19
2022-08-18T14:28:52.841Z,99995.88
2022-08-18T14:30:55.269Z,99987.66
2022-08-18T14:32:59.301Z,99988.56
2022-08-18T14:35:32.119Z,99991.31
2022-08-18T14:37:25.284Z,99981.72
2022-08-18T14:39:27.187Z,99993.25
2022-08-18T14:41:31.299Z,99995.34
2022-08-18T14:44:00.421Z,99987.97
2022-08-18T14:45:58.033Z,99991.88
2022-08-18T14:48:02.399Z,100002.13
2022-08-18T14:50:10.091Z,99999.38
2022-08-18T14:52:14.055Z,100000.59
2022-08-18T14:54:19.439Z,99991.53
2022-08-18T14:56:20.975Z,100003.09
2022-08-18T14:58:26.931Z,99996.84
2022-08-18T15:00:29.070Z,99994.06
2022-08-18T15:02:30.663Z,99992.41
2022-08-18T15:04:33.765Z,99995.66
2022-08-18T15:06:40.125Z,99999.28
2022-08-18T15:08:43.817Z,99999.66
2022-08-18T15:10:49.196Z,100008.78
2022-08-18T15:12:54.449Z,100013.41
2022-08-18T15:14:56.292Z,100004.50
2022-08-18T15:16:58.866Z,100006.53
2022-08-18T15:19:01.904Z,100002.16
2022-08-18T15:21:05.113Z,100003.38
2022-08-18T15:23:24.890Z,99999.00
2022-08-18T15:25:30.677Z,99997.03
2022-08-18T15:27:42.400Z,99997.84
2022-08-18T15:29:44.973Z,99996.59
2022-08-18T15:31:50.228Z,99996.59
2022-08-18T15:33:52.119Z,100003.88
2022-08-18T15:35:54.123Z,100001.88
2022-08-18T15:37:57.363Z,99997.09
2022-08-18T15:40:01.374Z,100004.66
2022-08-18T15:42:10.304Z,100008.97
2022-08-18T15:44:13.023Z,100008.19
2022-08-18T15:46:16.611Z,100003.06
2022-08-18T15:48:22.906Z,100001.88
2022-08-18T15:50:25.792Z,100004.97
2022-08-18T15:52:27.781Z,100002.97
2022-08-18T15:54:31.098Z,100007.31
2022-08-18T15:56:33.390Z,100008.13
2022-08-18T15:58:34.944Z,100005.00
2022-08-18T16:00:38.246Z,100006.16
2022-08-18T16:02:40.915Z,100002.97
2022-08-18T16:04:47.003Z,100009.69
2022-08-18T16:06:53.705Z,99997.81
2022-08-18T16:08:57.252Z,100002.56
2022-08-18T16:11:07.329Z,100005.69
2022-08-18T16:13:09.506Z,100008.41
2022-08-18T16:17:23.755Z,100011.56
2022-08-18T16:19:31.899Z,100009.56
2022-08-18T16:21:34.406Z,100007.59
2022-08-18T16:23:37.142Z,100004.06
2022-08-18T16:25:42.450Z,100006.88
2022-08-18T16:27:46.099Z,100008.78
2022-08-18T16:29:47.667Z,100006.78
2022-08-18T16:31:49.220Z,100010.75
2022-08-18T16:33:52.046Z,100013.66
2022-08-18T16:35:53.796Z,100009.69
2022-08-18T16:37:55.390Z,100007.72
2022-08-18T16:39:57.909Z,100007.31
2022-08-18T16:41:59.663Z,100004.59
2022-08-18T16:44:02.821Z,100005.88
2022-08-18T16:46:09.171Z,100002.59
2022-08-18T16:48:12.573Z,100004.59
2022-08-18T16:50:17.354Z,100001.81
2022-08-18T16:52:19.849Z,99995.47
2022-08-18T16:54:21.456Z,100003.44
2022-08-18T16:56:26.304Z,99997.09
2022-08-18T16:58:27.886Z,99994.66
2022-08-18T17:00:33.768Z,99997.44
2022-08-18T17:02:35.352Z,99993.91
2022-08-18T17:04:37.183Z,99985.97
2022-08-18T17:06:47.861Z,99983.25
2022-08-18T17:08:49.683Z,99984.81
2022-08-18T17:10:51.229Z,99988.03
2022-08-18T17:12:52.895Z,99978.91
2022-08-18T17:14:54.914Z,99981.25
2022-08-18T17:16:59.212Z,99977.66
2022-08-18T17:19:03.704Z,99976.91
2022-08-18T17:21:07.680Z,99978.47
2022-08-18T17:23:09.264Z,99975.69
2022-08-18T17:25:13.325Z,99974.88
2022-08-18T17:27:26.627Z,99969.34
2022-08-18T17:29:34.770Z,99964.97
2022-08-18T17:31:36.574Z,99975.69
2022-08-18T17:33:42.790Z,99967.38
2022-08-18T17:35:46.394Z,99968.97
2022-08-18T17:37:53.659Z,99967.00
2022-08-18T17:39:57.804Z,99974.50
2022-08-18T17:41:59.428Z,99970.94
2022-08-18T17:44:03.164Z,99975.28
2022-08-18T17:46:13.443Z,99972.13
2022-08-18T17:48:21.865Z,99969.34
2022-08-18T17:50:30.715Z,99977.66
2022-08-18T17:52:38.499Z,99974.94
2022-08-18T17:54:43.904Z,99976.94
2022-08-18T17:56:51.152Z,99975.75
2022-08-18T17:58:55.952Z,99978.53
2022-08-18T18:00:57.502Z,99979.72
2022-08-18T18:02:59.652Z,99974.19
2022-08-18T18:05:03.697Z,99979.31
2022-08-18T18:07:19.887Z,99985.72
2022-08-18T18:09:30.335Z,99987.69
2022-08-18T18:11:35.236Z,99983.84
2022-08-18T18:13:36.883Z,99981.19
2022-08-18T18:15:42.978Z,99991.56
2022-08-18T18:17:44.633Z,99985.38
2022-08-18T18:19:49.601Z,99994.44
2022-08-18T18:22:03.590Z,99995.59
2022-08-18T18:24:15.144Z,99995.19
2022-08-18T18:26:24.283Z,100001.13
2022-08-18T18:28:28.341Z,99994.03
2022-08-18T18:30:30.059Z,100005.06
2022-08-18T18:32:34.678Z,100011.78
2022-08-18T18:34:42.803Z,100014.56
2022-08-18T18:36:47.292Z,100007.06
2022-08-18T18:39:06.367Z,100017.31
2022-08-18T18:41:22.282Z,100012.22
2022-08-18T18:43:26.579Z,100006.28
2022-08-18T18:45:30.362Z,100006.69
2022-08-18T18:48:03.171Z,100014.16
2022-08-18T18:50:09.615Z,100018.91
2022-08-18T18:52:19.174Z,100018.13
2022-08-18T18:54:39.171Z,100010.56
2022-08-18T18:56:47.670Z,100007.06
2022-08-18T18:59:04.998Z,100015.31
2022-08-18T19:01:13.975Z,100019.66
2022-08-18T19:03:20.050Z,100023.66
2022-08-18T19:05:27.889Z,100021.25
2022-08-18T19:07:36.219Z,100032.31
2022-08-18T19:09:50.114Z,100027.97
2022-08-18T19:12:10.794Z,100032.31
2022-08-18T19:14:16.824Z,100035.09
2022-08-18T19:16:23.738Z,100039.41
2022-08-18T19:18:27.825Z,100034.66
2022-08-18T19:20:36.504Z,100038.59
2022-08-18T19:22:42.168Z,100040.97
2022-08-18T19:24:52.518Z,100037.78
2022-08-18T19:26:59.723Z,100034.63
2022-08-18T19:29:13.300Z,100035.81
2022-08-18T19:31:23.212Z,100030.25
2022-08-18T19:33:32.505Z,100040.94
2022-08-18T19:35:49.406Z,100043.25
2022-08-18T19:38:06.707Z,100038.13
2022-08-18T19:40:16.673Z,100041.31
2022-08-18T19:42:27.955Z,100036.19
2022-08-18T19:44:51.054Z,100038.94
2022-08-18T19:47:09.837Z,100032.59
2022-08-18T19:49:19.524Z,100032.59
2022-08-18T19:51:28.421Z,100033.41
2022-08-18T19:53:52.744Z,100038.56
2022-08-18T19:56:11.351Z,100038.16
2022-08-18T19:59:11.558Z,100037.38
2022-08-18T20:01:20.889Z,100036.97
2022-08-18T20:03:43.027Z,100035.03
2022-08-18T20:05:53.415Z,100030.28
2022-08-18T20:08:22.882Z,100031.09
2022-08-18T20:10:43.890Z,100032.25
2022-08-18T20:13:13.550Z,100029.09
2022-08-18T20:15:18.724Z,100026.75
2022-08-18T20:17:21.921Z,100027.13
2022-08-18T20:19:48.675Z,100025.91
2022-08-18T20:22:01.788Z,100029.09
2022-08-18T20:24:05.567Z,100037.81
2022-08-18T20:26:41.152Z,100033.06
2022-08-18T20:28:42.766Z,100037.44
2022-08-18T20:30:58.066Z,100047.31
2022-08-18T20:33:14.870Z,100043.38
2022-08-18T20:35:24.580Z,100062.38
2022-08-18T20:37:27.218Z,100056.88
2022-08-18T20:39:43.660Z,100059.63
2022-08-18T20:41:45.575Z,100056.47
2022-08-18T20:43:50.906Z,100058.41
2022-08-18T20:46:03.408Z,100065.16
2022-08-18T20:48:20.420Z,100066.34
2022-08-18T20:50:42.987Z,100066.34
2022-08-18T20:52:48.824Z,100068.75
2022-08-18T20:55:00.275Z,100069.97
2022-08-18T20:57:12.116Z,100069.97
2022-08-18T20:59:17.679Z,100081.84
2022-08-18T21:01:23.519Z,100074.38
2022-08-18T21:03:35.614Z,100077.56
2022-08-18T21:05:39.690Z,100072.03
2022-08-18T21:08:01.018Z,100065.66
2022-08-18T21:10:12.391Z,100059.34
2022-08-18T21:12:21.346Z,100062.84
2022-08-18T21:14:29.866Z,100058.50
2022-08-18T21:16:39.387Z,100048.22
2022-08-18T21:18:49.614Z,100053.34
2022-08-18T21:20:53.663Z,100054.53
2022-08-18T21:23:08.912Z,100054.53
2022-08-18T21:25:14.102Z,100047.81
2022-08-18T21:27:24.369Z,100059.72
2022-08-18T21:29:27.360Z,100056.94
2022-08-18T21:31:50.343Z,100059.34
2022-08-18T21:33:53.940Z,100058.56
2022-08-18T21:35:55.699Z,100062.47
2022-08-18T21:37:59.313Z,100062.50
2022-08-18T21:40:02.696Z,100067.25
2022-08-18T21:42:04.816Z,100072.81
2022-08-18T21:44:08.642Z,100075.59
2022-08-18T21:46:13.004Z,100072.47
2022-08-18T21:48:16.104Z,100074.44
2022-08-18T21:50:20.023Z,100074.84
2022-08-18T21:52:22.279Z,100075.28
2022-08-18T21:54:29.124Z,100076.47
2022-08-18T21:56:34.078Z,100088.75
2022-08-18T21:58:40.044Z,100098.25
2022-08-18T22:00:43.441Z,100087.19
2022-08-18T22:02:45.720Z,100099.88
2022-08-18T22:04:48.698Z,100097.50
2022-08-18T22:06:54.189Z,100097.13
2022-08-18T22:08:58.934Z,100106.19
2022-08-18T22:11:18.299Z,100100.69
2022-08-18T22:13:49.251Z,100114.91
2022-08-18T22:15:53.913Z,100114.91
2022-08-18T22:17:58.569Z,100122.03
2022-08-18T22:20:34.261Z,100118.84
2022-08-18T22:22:35.851Z,100121.22
2022-08-18T22:24:38.756Z,100119.66
2022-08-18T22:26:40.629Z,100127.94
2022-08-18T22:28:49.930Z,100122.81
2022-08-18T22:30:51.651Z,100118.84
2022-08-18T22:32:53.465Z,100112.56
2022-08-18T22:34:55.254Z,100118.88
2022-08-18T22:37:00.824Z,100110.97
2022-08-18T22:39:02.669Z,100105.03
2022-08-18T22:41:04.740Z,100108.59
2022-08-18T22:43:06.309Z,100108.59
2022-08-18T22:45:11.321Z,100111.78
2022-08-18T22:47:13.359Z,100107.81
2022-08-18T22:49:15.125Z,100112.16
2022-08-18T22:51:22.143Z,100111.38
2022-08-18T22:53:25.174Z,100109.00
2022-08-18T22:55:26.807Z,100106.22
2022-08-18T22:57:30.464Z,100107.81
2022-08-18T22:59:34.494Z,100108.19
2022-08-18T23:01:36.966Z,100104.63
2022-08-18T23:03:41.962Z,100105.44
2022-08-18T23:05:44.176Z,100103.44
2022-08-18T23:07:45.763Z,100101.84
2022-08-18T23:09:48.794Z,100101.06
2022-08-18T23:11:51.642Z,100096.31
2022-08-18T23:13:53.289Z,100101.47
2022-08-18T23:15:54.933Z,100103.81
2022-08-18T23:21:07.051Z,100113.72
2022-08-18T23:23:08.621Z,100115.31
2022-08-18T23:25:11.609Z,100121.22
2022-08-18T23:27:13.288Z,100125.94
2022-08-18T23:29:14.918Z,100132.66
2022-08-18T23:31:17.009Z,100133.88
2022-08-18T23:33:19.021Z,100141.75
2022-08-18T23:35:20.670Z,100142.56
2022-08-18T23:37:22.286Z,100148.09
2022-08-18T23:39:25.310Z,100150.03
2022-08-18T23:41:31.356Z,100151.22
2022-08-18T23:43:32.960Z,100152.41
2022-08-18T23:45:35.415Z,100146.13
2022-08-18T23:47:37.609Z,100145.72
2022-08-18T23:49:39.263Z,100148.06
2022-08-18T23:51:43.766Z,100142.94
2022-08-18T23:53:45.357Z,100137.81
2022-08-18T23:55:46.894Z,100145.31
2022-08-18T23:57:49.862Z,100145.31
2022-08-18T23:59:51.437Z,100142.94
